sensor_id;sensor_type;location;lat;lon;timestamp;pressure;altitude;pressure_sealevel;temperature;humidity
35778;BME280;21899;42.662;23.316;2023-04-07T00:00:19;94121.69;;;2.10;55.12
35778;BME280;21899;42.662;23.316;2023-04-07T00:02:45;94110.69;;;2.08;54.78
35778;BME280;21899;42.662;23.316;2023-04-07T00:05:11;94102.78;;;2.08;54.90
35778;BME280;21899;42.662;23.316;2023-04-07T00:07:36;94111.78;;;2.07;55.03
35778;BME280;21899;42.662;23.316;2023-04-07T00:10:02;94122.44;;;2.10;54.96
35778;BME280;21899;42.662;23.316;2023-04-07T00:12:27;94117.16;;;2.10;54.67
35778;BME280;21899;42.662;23.316;2023-04-07T00:14:53;94107.84;;;2.01;55.05
35778;BME280;21899;42.662;23.316;2023-04-07T00:17:18;94108.38;;;2.06;54.62
35778;BME280;21899;42.662;23.316;2023-04-07T00:19:43;94110.34;;;2.09;54.43
35778;BME280;21899;42.662;23.316;2023-04-07T00:22:09;94107.19;;;2.04;54.63
35778;BME280;21899;42.662;23.316;2023-04-07T00:24:34;94108.16;;;2.11;54.28
35778;BME280;21899;42.662;23.316;2023-04-07T00:27:00;94110.53;;;2.16;54.17
35778;BME280;21899;42.662;23.316;2023-04-07T00:29:26;94101.31;;;2.10;54.52
35778;BME280;21899;42.662;23.316;2023-04-07T00:31:51;94106.25;;;2.12;54.00
35778;BME280;21899;42.662;23.316;2023-04-07T00:34:17;94105.28;;;2.16;53.89
35778;BME280;21899;42.662;23.316;2023-04-07T00:36:42;94109.00;;;2.15;53.69
35778;BME280;21899;42.662;23.316;2023-04-07T00:39:07;94104.81;;;2.14;53.80
35778;BME280;21899;42.662;23.316;2023-04-07T00:41:33;94099.78;;;2.09;53.76
35778;BME280;21899;42.662;23.316;2023-04-07T00:44:00;94096.72;;;2.07;54.51
35778;BME280;21899;42.662;23.316;2023-04-07T00:46:25;94098.25;;;2.08;54.73
35778;BME280;21899;42.662;23.316;2023-04-07T00:48:51;94095.09;;;2.03;55.26
35778;BME280;21899;42.662;23.316;2023-04-07T00:51:19;94109.22;;;2.10;55.01
35778;BME280;21899;42.662;23.316;2023-04-07T00:53:45;94112.22;;;2.09;54.40
35778;BME280;21899;42.662;23.316;2023-04-07T00:56:11;94105.50;;;2.11;53.80
35778;BME280;21899;42.662;23.316;2023-04-07T00:58:37;94114.28;;;2.15;53.96
35778;BME280;21899;42.662;23.316;2023-04-07T01:01:08;94101.22;;;2.07;54.62
35778;BME280;21899;42.662;23.316;2023-04-07T01:03:52;94106.59;;;2.10;54.73
35778;BME280;21899;42.662;23.316;2023-04-07T01:06:23;94099.34;;;2.07;54.31
35778;BME280;21899;42.662;23.316;2023-04-07T01:08:58;94099.88;;;2.13;54.27
35778;BME280;21899;42.662;23.316;2023-04-07T01:11:45;94102.44;;;2.09;54.12
35778;BME280;21899;42.662;23.316;2023-04-07T01:14:14;94087.28;;;2.06;54.54
35778;BME280;21899;42.662;23.316;2023-04-07T01:16:45;94081.66;;;2.08;55.29
35778;BME280;21899;42.662;23.316;2023-04-07T01:19:32;94089.03;;;2.02;54.70
35778;BME280;21899;42.662;23.316;2023-04-07T01:21:59;94090.75;;;2.10;54.32
35778;BME280;21899;42.662;23.316;2023-04-07T01:27:04;94094.03;;;2.19;53.87
35778;BME280;21899;42.662;23.316;2023-04-07T01:29:38;94069.47;;;2.19;53.09
35778;BME280;21899;42.662;23.316;2023-04-07T01:32:10;94083.66;;;2.26;53.16
35778;BME280;21899;42.662;23.316;2023-04-07T01:34:37;94093.94;;;2.31;52.86
35778;BME280;21899;42.662;23.316;2023-04-07T01:37:03;94078.44;;;2.30;53.03
35778;BME280;21899;42.662;23.316;2023-04-07T01:39:29;94081.16;;;2.33;52.75
35778;BME280;21899;42.662;23.316;2023-04-07T01:41:56;94091.47;;;2.38;53.11
35778;BME280;21899;42.662;23.316;2023-04-07T01:44:24;94075.38;;;2.43;52.68
35778;BME280;21899;42.662;23.316;2023-04-07T01:46:50;94068.16;;;2.40;52.24
35778;BME280;21899;42.662;23.316;2023-04-07T01:49:17;94075.81;;;2.45;52.43
35778;BME280;21899;42.662;23.316;2023-04-07T01:51:43;94073.69;;;2.51;52.09
35778;BME280;21899;42.662;23.316;2023-04-07T01:54:14;94078.38;;;2.57;51.71
35778;BME280;21899;42.662;23.316;2023-04-07T01:56:39;94073.69;;;2.51;51.48
35778;BME280;21899;42.662;23.316;2023-04-07T01:59:05;94071.47;;;2.53;51.50
35778;BME280;21899;42.662;23.316;2023-04-07T02:01:30;94068.75;;;2.49;51.85
35778;BME280;21899;42.662;23.316;2023-04-07T02:04:21;94080.50;;;2.52;51.42
35778;BME280;21899;42.662;23.316;2023-04-07T02:06:56;94077.19;;;2.55;52.09
35778;BME280;21899;42.662;23.316;2023-04-07T02:09:25;94069.44;;;2.62;51.72
35778;BME280;21899;42.662;23.316;2023-04-07T02:11:54;94071.03;;;2.66;51.49
35778;BME280;21899;42.662;23.316;2023-04-07T02:14:22;94067.72;;;2.69;50.93
35778;BME280;21899;42.662;23.316;2023-04-07T02:16:49;94059.63;;;2.62;50.61
35778;BME280;21899;42.662;23.316;2023-04-07T02:19:16;94066.78;;;2.62;50.43
35778;BME280;21899;42.662;23.316;2023-04-07T02:21:43;94070.28;;;2.82;50.63
35778;BME280;21899;42.662;23.316;2023-04-07T02:24:10;94065.06;;;2.85;50.24
35778;BME280;21899;42.662;23.316;2023-04-07T02:26:36;94066.69;;;2.90;50.43
35778;BME280;21899;42.662;23.316;2023-04-07T02:29:02;94069.22;;;2.86;49.69
35778;BME280;21899;42.662;23.316;2023-04-07T02:31:28;94071.00;;;2.98;49.41
35778;BME280;21899;42.662;23.316;2023-04-07T02:33:54;94079.09;;;3.05;49.54
35778;BME280;21899;42.662;23.316;2023-04-07T02:36:20;94071.44;;;3.00;49.02
35778;BME280;21899;42.662;23.316;2023-04-07T02:39:04;94077.31;;;3.09;48.74
35778;BME280;21899;42.662;23.316;2023-04-07T02:41:29;94063.25;;;3.05;48.99
35778;BME280;21899;42.662;23.316;2023-04-07T02:43:55;94071.34;;;3.12;49.00
35778;BME280;21899;42.662;23.316;2023-04-07T02:46:20;94078.84;;;3.10;48.41
35778;BME280;21899;42.662;23.316;2023-04-07T02:48:45;94066.75;;;3.09;48.80
35778;BME280;21899;42.662;23.316;2023-04-07T02:51:11;94068.28;;;3.10;48.60
35778;BME280;21899;42.662;23.316;2023-04-07T02:53:36;94071.69;;;3.10;48.80
35778;BME280;21899;42.662;23.316;2023-04-07T02:56:02;94085.91;;;3.21;49.06
35778;BME280;21899;42.662;23.316;2023-04-07T02:58:27;94089.06;;;3.27;48.98
35778;BME280;21899;42.662;23.316;2023-04-07T03:00:53;94092.78;;;3.26;48.53
35778;BME280;21899;42.662;23.316;2023-04-07T03:03:18;94081.38;;;3.22;49.01
35778;BME280;21899;42.662;23.316;2023-04-07T03:05:43;94090.66;;;3.31;48.86
35778;BME280;21899;42.662;23.316;2023-04-07T03:08:09;94086.16;;;3.32;47.95
35778;BME280;21899;42.662;23.316;2023-04-07T03:10:34;94091.00;;;3.30;48.42
35778;BME280;21899;42.662;23.316;2023-04-07T03:13:00;94080.25;;;3.23;48.34
35778;BME280;21899;42.662;23.316;2023-04-07T03:15:25;94093.81;;;3.37;48.94
35778;BME280;21899;42.662;23.316;2023-04-07T03:17:51;94090.31;;;3.33;49.32
35778;BME280;21899;42.662;23.316;2023-04-07T03:20:16;94086.16;;;3.32;48.95
35778;BME280;21899;42.662;23.316;2023-04-07T03:22:42;94086.06;;;3.28;49.28
35778;BME280;21899;42.662;23.316;2023-04-07T03:25:09;94092.41;;;3.24;49.02
35778;BME280;21899;42.662;23.316;2023-04-07T03:27:35;94088.97;;;3.23;49.14
35778;BME280;21899;42.662;23.316;2023-04-07T03:30:00;94081.31;;;3.18;49.20
35778;BME280;21899;42.662;23.316;2023-04-07T03:32:26;94068.53;;;3.05;50.21
35778;BME280;21899;42.662;23.316;2023-04-07T03:34:51;94084.31;;;3.01;50.14
35778;BME280;21899;42.662;23.316;2023-04-07T03:37:17;94080.84;;;2.97;50.60
35778;BME280;21899;42.662;23.316;2023-04-07T03:39:42;94082.97;;;2.92;50.33
35778;BME280;21899;42.662;23.316;2023-04-07T03:42:07;94073.34;;;2.84;50.46
35778;BME280;21899;42.662;23.316;2023-04-07T03:44:33;94066.19;;;2.84;50.99
35778;BME280;21899;42.662;23.316;2023-04-07T03:46:59;94090.63;;;2.81;51.07
35778;BME280;21899;42.662;23.316;2023-04-07T03:49:25;94085.78;;;2.83;50.94
35778;BME280;21899;42.662;23.316;2023-04-07T03:51:51;94085.78;;;2.83;51.03
35778;BME280;21899;42.662;23.316;2023-04-07T03:54:16;94075.22;;;2.83;50.47
35778;BME280;21899;42.662;23.316;2023-04-07T03:56:42;94069.84;;;2.80;50.96
35778;BME280;21899;42.662;23.316;2023-04-07T03:59:07;94082.09;;;2.88;50.90
35778;BME280;21899;42.662;23.316;2023-04-07T04:01:33;94086.56;;;2.84;50.87
35778;BME280;21899;42.662;23.316;2023-04-07T04:03:58;94084.94;;;2.79;50.63
35778;BME280;21899;42.662;23.316;2023-04-07T04:06:23;94097.56;;;2.86;50.94
35778;BME280;21899;42.662;23.316;2023-04-07T04:08:50;94093.78;;;2.87;51.03
35778;BME280;21899;42.662;23.316;2023-04-07T04:11:16;94092.38;;;2.89;50.40
35778;BME280;21899;42.662;23.316;2023-04-07T04:13:41;94097.69;;;2.93;50.32
35778;BME280;21899;42.662;23.316;2023-04-07T04:16:06;94104.97;;;2.96;50.51
35778;BME280;21899;42.662;23.316;2023-04-07T04:18:32;94095.22;;;3.00;50.45
35778;BME280;21899;42.662;23.316;2023-04-07T04:20:57;94090.13;;;3.07;49.87
35778;BME280;21899;42.662;23.316;2023-04-07T04:23:23;94106.41;;;3.09;49.08
35778;BME280;21899;42.662;23.316;2023-04-07T04:25:48;94106.16;;;3.14;49.56
35778;BME280;21899;42.662;23.316;2023-04-07T04:28:13;94119.09;;;3.19;49.37
35778;BME280;21899;42.662;23.316;2023-04-07T04:30:39;94100.16;;;3.17;48.62
35778;BME280;21899;42.662;23.316;2023-04-07T04:33:05;94102.53;;;3.22;48.92
35778;BME280;21899;42.662;23.316;2023-04-07T04:35:30;94111.91;;;3.35;49.33
35778;BME280;21899;42.662;23.316;2023-04-07T04:37:55;94106.69;;;3.38;49.33
35778;BME280;21899;42.662;23.316;2023-04-07T04:40:21;94106.50;;;3.47;48.50
35778;BME280;21899;42.662;23.316;2023-04-07T04:42:46;94111.66;;;3.59;48.94
35778;BME280;21899;42.662;23.316;2023-04-07T04:45:12;94114.47;;;3.66;48.02
35778;BME280;21899;42.662;23.316;2023-04-07T04:47:37;94125.63;;;3.75;47.95
35778;BME280;21899;42.662;23.316;2023-04-07T04:50:04;94130.28;;;3.81;47.45
35778;BME280;21899;42.662;23.316;2023-04-07T04:52:30;94109.19;;;3.85;47.33
35778;BME280;21899;42.662;23.316;2023-04-07T04:54:56;94130.56;;;3.95;46.43
35778;BME280;21899;42.662;23.316;2023-04-07T04:57:21;94131.50;;;4.03;47.83
35778;BME280;21899;42.662;23.316;2023-04-07T04:59:46;94130.63;;;3.99;53.19
35778;BME280;21899;42.662;23.316;2023-04-07T05:02:12;94132.16;;;4.00;54.37
35778;BME280;21899;42.662;23.316;2023-04-07T05:04:37;94136.34;;;3.82;56.98
35778;BME280;21899;42.662;23.316;2023-04-07T05:07:03;94140.91;;;3.47;58.94
35778;BME280;21899;42.662;23.316;2023-04-07T05:09:28;94138.09;;;3.24;60.26
35778;BME280;21899;42.662;23.316;2023-04-07T05:11:54;94139.22;;;3.08;61.64
35778;BME280;21899;42.662;23.316;2023-04-07T05:14:19;94147.28;;;2.96;59.94
35778;BME280;21899;42.662;23.316;2023-04-07T05:16:45;94129.84;;;2.95;59.95
35778;BME280;21899;42.662;23.316;2023-04-07T05:19:10;94131.56;;;3.03;62.48
35778;BME280;21899;42.662;23.316;2023-04-07T05:21:36;94150.06;;;3.18;62.04
35778;BME280;21899;42.662;23.316;2023-04-07T05:24:01;94154.47;;;3.30;61.11
35778;BME280;21899;42.662;23.316;2023-04-07T05:26:27;94153.81;;;3.17;61.61
35778;BME280;21899;42.662;23.316;2023-04-07T05:28:52;94145.94;;;3.36;61.41
35778;BME280;21899;42.662;23.316;2023-04-07T05:31:17;94149.81;;;3.58;60.15
35778;BME280;21899;42.662;23.316;2023-04-07T05:33:43;94143.81;;;3.76;59.57
35778;BME280;21899;42.662;23.316;2023-04-07T05:36:08;94149.91;;;3.61;59.93
35778;BME280;21899;42.662;23.316;2023-04-07T05:38:34;94151.47;;;3.81;59.36
35778;BME280;21899;42.662;23.316;2023-04-07T05:40:59;94151.31;;;3.93;59.10
35778;BME280;21899;42.662;23.316;2023-04-07T05:43:25;94152.78;;;4.10;58.39
35778;BME280;21899;42.662;23.316;2023-04-07T05:45:50;94148.59;;;4.28;57.91
35778;BME280;21899;42.662;23.316;2023-04-07T05:48:16;94147.59;;;4.55;57.11
35778;BME280;21899;42.662;23.316;2023-04-07T05:50:41;94154.81;;;4.77;55.52
35778;BME280;21899;42.662;23.316;2023-04-07T05:53:07;94160.50;;;4.98;55.40
35778;BME280;21899;42.662;23.316;2023-04-07T05:55:32;94154.72;;;5.15;53.86
35778;BME280;21899;42.662;23.316;2023-04-07T05:57:58;94165.66;;;5.37;54.03
35778;BME280;21899;42.662;23.316;2023-04-07T06:00:24;94156.94;;;5.13;52.62
35778;BME280;21899;42.662;23.316;2023-04-07T06:02:49;94163.31;;;4.86;53.69
35778;BME280;21899;42.662;23.316;2023-04-07T06:05:15;94163.13;;;4.76;53.52
35778;BME280;21899;42.662;23.316;2023-04-07T06:07:40;94147.41;;;4.86;53.58
35778;BME280;21899;42.662;23.316;2023-04-07T06:10:06;94143.06;;;4.97;53.75
35778;BME280;21899;42.662;23.316;2023-04-07T06:12:32;94149.28;;;5.08;52.56
35778;BME280;21899;42.662;23.316;2023-04-07T06:14:57;94150.94;;;4.94;52.57
35778;BME280;21899;42.662;23.316;2023-04-07T06:17:23;94156.06;;;4.83;52.61
35778;BME280;21899;42.662;23.316;2023-04-07T06:19:48;94151.94;;;5.08;52.74
35778;BME280;21899;42.662;23.316;2023-04-07T06:22:13;94158.91;;;5.43;52.26
35778;BME280;21899;42.662;23.316;2023-04-07T06:24:39;94160.16;;;6.01;50.98
35778;BME280;21899;42.662;23.316;2023-04-07T06:27:05;94156.38;;;6.35;49.72
35778;BME280;21899;42.662;23.316;2023-04-07T06:29:34;94154.84;;;6.67;48.33
35778;BME280;21899;42.662;23.316;2023-04-07T06:31:59;94144.53;;;6.62;48.22
35778;BME280;21899;42.662;23.316;2023-04-07T06:34:25;94133.16;;;6.65;47.85
35778;BME280;21899;42.662;23.316;2023-04-07T06:36:51;94142.03;;;6.80;47.52
35778;BME280;21899;42.662;23.316;2023-04-07T06:39:16;94147.72;;;6.78;46.75
35778;BME280;21899;42.662;23.316;2023-04-07T06:41:42;94147.81;;;6.85;44.70
35778;BME280;21899;42.662;23.316;2023-04-07T06:44:08;94159.25;;;6.93;41.71
35778;BME280;21899;42.662;23.316;2023-04-07T06:46:35;94140.28;;;6.94;40.24
35778;BME280;21899;42.662;23.316;2023-04-07T06:49:01;94152.84;;;6.94;40.26
35778;BME280;21899;42.662;23.316;2023-04-07T06:51:27;94156.41;;;7.12;40.06
35778;BME280;21899;42.662;23.316;2023-04-07T06:53:53;94148.19;;;7.31;39.61
35778;BME280;21899;42.662;23.316;2023-04-07T06:56:18;94152.44;;;7.39;39.46
35778;BME280;21899;42.662;23.316;2023-04-07T06:58:44;94154.44;;;7.52;39.24
35778;BME280;21899;42.662;23.316;2023-04-07T07:01:09;94164.63;;;7.94;39.17
35778;BME280;21899;42.662;23.316;2023-04-07T07:03:35;94156.25;;;7.95;38.33
35778;BME280;21899;42.662;23.316;2023-04-07T07:06:00;94149.75;;;7.89;38.56
35778;BME280;21899;42.662;23.316;2023-04-07T07:08:27;94161.53;;;7.88;37.74
35778;BME280;21899;42.662;23.316;2023-04-07T07:10:52;94162.25;;;7.82;37.98
35778;BME280;21899;42.662;23.316;2023-04-07T07:13:20;94147.09;;;7.89;38.51
35778;BME280;21899;42.662;23.316;2023-04-07T07:15:47;94157.91;;;8.21;38.47
35778;BME280;21899;42.662;23.316;2023-04-07T07:18:13;94167.00;;;8.13;37.61
35778;BME280;21899;42.662;23.316;2023-04-07T07:20:38;94170.09;;;8.22;37.63
35778;BME280;21899;42.662;23.316;2023-04-07T07:23:03;94164.81;;;8.26;36.67
35778;BME280;21899;42.662;23.316;2023-04-07T07:25:29;94166.28;;;8.20;36.76
35778;BME280;21899;42.662;23.316;2023-04-07T07:27:54;94161.03;;;8.30;36.97
35778;BME280;21899;42.662;23.316;2023-04-07T07:30:21;94160.25;;;8.33;37.17
35778;BME280;21899;42.662;23.316;2023-04-07T07:32:47;94172.91;;;8.47;36.86
35778;BME280;21899;42.662;23.316;2023-04-07T07:35:13;94177.47;;;8.50;37.05
35778;BME280;21899;42.662;23.316;2023-04-07T07:37:38;94183.28;;;8.66;36.58
35778;BME280;21899;42.662;23.316;2023-04-07T07:40:04;94182.47;;;8.62;36.60
35778;BME280;21899;42.662;23.316;2023-04-07T07:42:30;94177.22;;;8.76;36.35
35778;BME280;21899;42.662;23.316;2023-04-07T07:44:56;94179.47;;;8.70;36.08
35778;BME280;21899;42.662;23.316;2023-04-07T07:47:21;94192.41;;;8.65;36.57
35778;BME280;21899;42.662;23.316;2023-04-07T07:49:47;94176.34;;;8.58;36.18
35778;BME280;21899;42.662;23.316;2023-04-07T07:52:13;94190.19;;;8.91;36.64
35778;BME280;21899;42.662;23.316;2023-04-07T07:54:38;94183.38;;;9.08;36.14
35778;BME280;21899;42.662;23.316;2023-04-07T07:57:03;94187.25;;;9.39;35.61
35778;BME280;21899;42.662;23.316;2023-04-07T07:59:30;94184.56;;;9.63;35.19
35778;BME280;21899;42.662;23.316;2023-04-07T08:01:56;94182.66;;;9.81;34.49
35778;BME280;21899;42.662;23.316;2023-04-07T08:04:21;94179.59;;;9.69;34.83
35778;BME280;21899;42.662;23.316;2023-04-07T08:06:48;94189.13;;;9.66;35.05
35778;BME280;21899;42.662;23.316;2023-04-07T08:09:13;94184.91;;;9.65;34.56
35778;BME280;21899;42.662;23.316;2023-04-07T08:11:39;94183.03;;;9.55;34.33
35778;BME280;21899;42.662;23.316;2023-04-07T08:14:05;94188.75;;;9.64;34.43
35778;BME280;21899;42.662;23.316;2023-04-07T08:16:31;94187.97;;;9.67;33.94
35778;BME280;21899;42.662;23.316;2023-04-07T08:18:56;94189.13;;;9.80;33.67
35778;BME280;21899;42.662;23.316;2023-04-07T08:21:22;94169.66;;;9.76;34.08
35778;BME280;21899;42.662;23.316;2023-04-07T08:23:47;94184.16;;;9.75;34.05
35778;BME280;21899;42.662;23.316;2023-04-07T08:26:12;94174.63;;;9.74;34.18
35778;BME280;21899;42.662;23.316;2023-04-07T08:28:38;94191.03;;;9.69;34.37
35778;BME280;21899;42.662;23.316;2023-04-07T08:31:03;94182.66;;;9.81;34.38
35778;BME280;21899;42.662;23.316;2023-04-07T08:33:29;94177.28;;;9.81;34.48
35778;BME280;21899;42.662;23.316;2023-04-07T08:35:55;94198.69;;;9.53;34.93
35778;BME280;21899;42.662;23.316;2023-04-07T08:38:21;94196.38;;;9.34;35.09
35778;BME280;21899;42.662;23.316;2023-04-07T08:40:49;94173.09;;;9.24;35.09
35778;BME280;21899;42.662;23.316;2023-04-07T08:43:19;94178.03;;;9.15;35.66
35778;BME280;21899;42.662;23.316;2023-04-07T08:45:45;94191.78;;;9.35;35.32
35778;BME280;21899;42.662;23.316;2023-04-07T08:48:16;94184.94;;;9.51;35.26
35778;BME280;21899;42.662;23.316;2023-04-07T08:50:44;94187.22;;;9.56;34.99
35778;BME280;21899;42.662;23.316;2023-04-07T08:53:12;94181.13;;;9.52;35.11
35778;BME280;21899;42.662;23.316;2023-04-07T08:55:40;94185.69;;;9.62;34.69
35778;BME280;21899;42.662;23.316;2023-04-07T08:58:08;94191.44;;;9.68;34.59
35778;BME280;21899;42.662;23.316;2023-04-07T09:00:39;94185.31;;;9.74;33.99
35778;BME280;21899;42.662;23.316;2023-04-07T09:03:07;94195.97;;;9.95;33.28
35778;BME280;21899;42.662;23.316;2023-04-07T09:05:33;94185.66;;;9.97;33.60
35778;BME280;21899;42.662;23.316;2023-04-07T09:07:58;94181.47;;;10.10;33.88
35778;BME280;21899;42.662;23.316;2023-04-07T09:10:24;94181.06;;;10.26;32.87
35778;BME280;21899;42.662;23.316;2023-04-07T09:12:49;94169.59;;;10.22;33.24
35778;BME280;21899;42.662;23.316;2023-04-07T09:15:15;94188.63;;;10.48;33.29
35778;BME280;21899;42.662;23.316;2023-04-07T09:17:40;94189.69;;;10.69;32.65
35778;BME280;21899;42.662;23.316;2023-04-07T09:20:06;94181.78;;;10.37;32.83
35778;BME280;21899;42.662;23.316;2023-04-07T09:22:42;94196.31;;;10.39;32.97
35778;BME280;21899;42.662;23.316;2023-04-07T09:25:11;94174.22;;;10.14;33.36
35778;BME280;21899;42.662;23.316;2023-04-07T09:27:37;94191.00;;;10.18;33.66
35778;BME280;21899;42.662;23.316;2023-04-07T09:30:10;94195.97;;;10.23;33.10
35778;BME280;21899;42.662;23.316;2023-04-07T09:32:36;94193.28;;;10.30;33.28
35778;BME280;21899;42.662;23.316;2023-04-07T09:35:03;94192.47;;;10.40;33.73
35778;BME280;21899;42.662;23.316;2023-04-07T09:37:28;94193.72;;;10.11;33.72
35778;BME280;21899;42.662;23.316;2023-04-07T09:39:54;94186.03;;;10.27;33.55
35778;BME280;21899;42.662;23.316;2023-04-07T09:42:19;94186.03;;;10.27;33.36
35778;BME280;21899;42.662;23.316;2023-04-07T09:44:45;94190.25;;;10.18;33.52
35778;BME280;21899;42.662;23.316;2023-04-07T09:47:11;94207.06;;;9.59;34.66
35778;BME280;21899;42.662;23.316;2023-04-07T09:49:51;94194.44;;;9.24;34.73
35778;BME280;21899;42.662;23.316;2023-04-07T09:52:18;94198.66;;;9.18;35.45
35778;BME280;21899;42.662;23.316;2023-04-07T09:54:45;94208.59;;;9.28;35.32
35778;BME280;21899;42.662;23.316;2023-04-07T09:57:11;94209.75;;;9.48;35.20
35778;BME280;21899;42.662;23.316;2023-04-07T09:59:39;94213.94;;;9.74;35.63
35778;BME280;21899;42.662;23.316;2023-04-07T10:02:09;94201.31;;;10.02;34.80
35778;BME280;21899;42.662;23.316;2023-04-07T10:04:35;94197.88;;;10.02;34.93
35778;BME280;21899;42.662;23.316;2023-04-07T10:07:01;94203.19;;;10.40;34.09
35778;BME280;21899;42.662;23.316;2023-04-07T10:09:28;94197.41;;;10.52;33.84
35778;BME280;21899;42.662;23.316;2023-04-07T10:11:55;94203.97;;;10.23;34.09
35778;BME280;21899;42.662;23.316;2023-04-07T10:14:29;94192.56;;;9.91;34.15
35778;BME280;21899;42.662;23.316;2023-04-07T10:16:55;94198.66;;;9.88;34.89
35778;BME280;21899;42.662;23.316;2023-04-07T10:19:21;94195.59;;;10.04;35.07
35778;BME280;21899;42.662;23.316;2023-04-07T10:21:50;94204.75;;;10.10;34.43
35778;BME280;21899;42.662;23.316;2023-04-07T10:24:48;94202.44;;;10.05;34.58
35778;BME280;21899;42.662;23.316;2023-04-07T10:27:19;94200.59;;;9.60;35.41
35778;BME280;21899;42.662;23.316;2023-04-07T10:29:49;94208.59;;;9.81;35.88
35778;BME280;21899;42.662;23.316;2023-04-07T10:32:16;94200.19;;;10.14;35.48
35778;BME280;21899;42.662;23.316;2023-04-07T10:37:21;94214.72;;;9.60;35.73
35778;BME280;21899;42.662;23.316;2023-04-07T10:39:48;94215.88;;;9.70;35.38
35778;BME280;21899;42.662;23.316;2023-04-07T10:45:08;94215.84;;;10.26;34.28
35778;BME280;21899;42.662;23.316;2023-04-07T10:48:08;94208.50;;;10.51;34.50
35778;BME280;21899;42.662;23.316;2023-04-07T10:50:21;94201.59;;;10.64;34.20
35778;BME280;21899;42.662;23.316;2023-04-07T10:52:48;94203.13;;;10.58;35.49
35778;BME280;21899;42.662;23.316;2023-04-07T10:55:34;94230.72;;;10.16;36.29
35778;BME280;21899;42.662;23.316;2023-04-07T10:58:19;94227.66;;;9.23;38.20
35778;BME280;21899;42.662;23.316;2023-04-07T11:03:38;94231.41;;;8.94;39.38
35778;BME280;21899;42.662;23.316;2023-04-07T11:06:07;94231.00;;;9.02;38.82
35778;BME280;21899;42.662;23.316;2023-04-07T11:08:46;94235.25;;;9.14;38.58
35778;BME280;21899;42.662;23.316;2023-04-07T11:11:14;94232.22;;;9.15;38.78
35778;BME280;21899;42.662;23.316;2023-04-07T11:16:16;94235.25;;;9.14;39.34
35778;BME280;21899;42.662;23.316;2023-04-07T11:18:43;94221.94;;;9.28;38.25
35778;BME280;21899;42.662;23.316;2023-04-07T11:21:10;94221.16;;;9.24;38.79
35778;BME280;21899;42.662;23.316;2023-04-07T11:23:39;94232.97;;;9.16;39.12
35778;BME280;21899;42.662;23.316;2023-04-07T11:26:05;94233.69;;;8.99;39.29
35778;BME280;21899;42.662;23.316;2023-04-07T11:28:31;94239.78;;;9.03;38.91
35778;BME280;21899;42.662;23.316;2023-04-07T11:30:57;94232.13;;;8.87;40.17
35778;BME280;21899;42.662;23.316;2023-04-07T11:33:26;94235.63;;;9.12;40.20
35778;BME280;21899;42.662;23.316;2023-04-07T11:35:56;94244.81;;;9.25;39.63
35778;BME280;21899;42.662;23.316;2023-04-07T11:38:28;94248.66;;;9.49;39.03
35778;BME280;21899;42.662;23.316;2023-04-07T11:40:55;94247.53;;;9.61;39.15
35778;BME280;21899;42.662;23.316;2023-04-07T11:43:25;94235.28;;;9.32;39.88
35778;BME280;21899;42.662;23.316;2023-04-07T11:46:08;94241.72;;;9.06;40.60
35778;BME280;21899;42.662;23.316;2023-04-07T11:48:36;94248.81;;;8.67;41.12
35778;BME280;21899;42.662;23.316;2023-04-07T11:51:02;94235.09;;;8.65;41.26
35778;BME280;21899;42.662;23.316;2023-04-07T11:53:30;94244.63;;;8.66;41.58
35778;BME280;21899;42.662;23.316;2023-04-07T11:56:03;94228.31;;;8.85;40.84
35778;BME280;21899;42.662;23.316;2023-04-07T11:58:30;94237.56;;;9.12;41.46
35778;BME280;21899;42.662;23.316;2023-04-07T12:00:56;94242.47;;;9.06;40.80
35778;BME280;21899;42.662;23.316;2023-04-07T12:03:22;94235.19;;;8.89;41.52
35778;BME280;21899;42.662;23.316;2023-04-07T12:05:47;94235.13;;;8.72;41.65
35778;BME280;21899;42.662;23.316;2023-04-07T12:08:13;94228.97;;;8.61;42.07
35778;BME280;21899;42.662;23.316;2023-04-07T12:10:43;94244.25;;;8.74;41.84
35778;BME280;21899;42.662;23.316;2023-04-07T12:13:12;94232.09;;;8.77;41.43
35778;BME280;21899;42.662;23.316;2023-04-07T12:15:37;94221.75;;;8.68;42.21
35778;BME280;21899;42.662;23.316;2023-04-07T12:18:03;94236.66;;;8.80;42.24
35778;BME280;21899;42.662;23.316;2023-04-07T12:20:29;94231.38;;;8.90;42.50
35778;BME280;21899;42.662;23.316;2023-04-07T12:22:54;94235.63;;;9.12;41.19
35778;BME280;21899;42.662;23.316;2023-04-07T12:25:20;94226.13;;;9.29;41.00
35778;BME280;21899;42.662;23.316;2023-04-07T12:27:45;94234.13;;;9.25;40.74
35778;BME280;21899;42.662;23.316;2023-04-07T12:30:11;94227.56;;;8.95;41.35
35778;BME280;21899;42.662;23.316;2023-04-07T12:32:37;94235.59;;;9.02;41.83
35778;BME280;21899;42.662;23.316;2023-04-07T12:35:03;94242.81;;;8.91;41.48
35778;BME280;21899;42.662;23.316;2023-04-07T12:37:29;94222.63;;;8.93;41.48
35778;BME280;21899;42.662;23.316;2023-04-07T12:39:55;94217.34;;;9.18;41.21
35778;BME280;21899;42.662;23.316;2023-04-07T12:42:21;94233.03;;;9.55;41.07
35778;BME280;21899;42.662;23.316;2023-04-07T12:44:46;94244.09;;;9.32;40.82
35778;BME280;21899;42.662;23.316;2023-04-07T12:47:12;94239.09;;;9.20;41.01
35778;BME280;21899;42.662;23.316;2023-04-07T12:49:37;94223.03;;;9.06;41.28
35778;BME280;21899;42.662;23.316;2023-04-07T12:52:02;94225.38;;;9.29;40.91
35778;BME280;21899;42.662;23.316;2023-04-07T12:54:28;94229.59;;;9.37;41.11
35778;BME280;21899;42.662;23.316;2023-04-07T12:56:54;94226.16;;;9.64;40.31
35778;BME280;21899;42.662;23.316;2023-04-07T12:59:21;94237.22;;;9.80;40.44
35778;BME280;21899;42.662;23.316;2023-04-07T13:01:46;94247.53;;;9.43;40.55
35778;BME280;21899;42.662;23.316;2023-04-07T13:04:12;94247.81;;;9.03;41.60
35778;BME280;21899;42.662;23.316;2023-04-07T13:06:37;94245.16;;;9.10;41.86
35778;BME280;21899;42.662;23.316;2023-04-07T13:09:02;94258.13;;;9.11;41.53
35778;BME280;21899;42.662;23.316;2023-04-07T13:11:28;94244.78;;;9.11;41.81